Time;durP1;ratioP1;P1;durP2;ratioP2;P2;SDS_P1;SDS_P2;PMS_P1;PMS_P2;Temp;Humidity;BMP_temperature;BMP_pressure;BME280_temperature;BME280_humidity;BME280_pressure;Samples;Min_cycle;Max_cycle;Signal;HPM_P1;HPM_P2
2021/12/01 00:02:04;;;;;;;52.72;13.43;;;8.60;99.90;;;;;;4970435;28;20294;-71
2021/12/01 00:04:29;;;;;;;50.47;12.82;;;8.70;99.90;;;;;;4971385;28;20081;-71
2021/12/01 00:06:55;;;;;;;58.50;14.18;;;8.70;99.90;;;;;;4992480;28;20479;-69
2021/12/01 00:09:21;;;;;;;55.95;13.98;;;8.80;99.90;;;;;;4972766;28;20455;-71
2021/12/01 00:11:47;;;;;;;49.90;12.45;;;8.80;99.90;;;;;;4975560;28;20046;-69
2021/12/01 00:14:12;;;;;;;53.15;12.90;;;8.90;99.90;;;;;;4974961;28;20057;-69
2021/12/01 00:16:38;;;;;;;60.33;15.05;;;8.90;99.90;;;;;;4975965;28;20128;-72
2021/12/01 00:19:04;;;;;;;52.50;13.25;;;9.00;99.90;;;;;;4973387;28;20046;-71
2021/12/01 00:21:30;;;;;;;61.50;14.48;;;9.00;99.90;;;;;;4992426;28;20124;-70
2021/12/01 00:23:55;;;;;;;58.83;14.63;;;9.10;99.90;;;;;;4980004;28;20049;-69
2021/12/01 00:26:21;;;;;;;61.65;15.30;;;9.10;99.90;;;;;;4993098;28;20148;-70
2021/12/01 00:28:47;;;;;;;55.50;14.38;;;9.10;99.90;;;;;;4957060;28;20554;-70
2021/12/01 00:31:13;;;;;;;65.22;14.82;;;9.20;99.90;;;;;;4976152;28;20125;-70
2021/12/01 00:33:41;;;;;;;52.30;13.80;;;9.30;99.90;;;;;;4992093;28;20084;-69
2021/12/01 00:36:13;;;;;;;52.53;13.60;;;9.40;99.90;;;;;;4978070;28;20132;-69
2021/12/01 00:38:39;;;;;;;45.35;13.23;;;9.40;99.90;;;;;;4982009;28;20104;-69
2021/12/01 00:41:07;;;;;;;52.80;15.05;;;9.50;99.90;;;;;;4977854;28;20120;-70
2021/12/01 00:43:35;;;;;;;45.28;14.05;;;9.50;99.90;;;;;;5004016;28;20060;-69
2021/12/01 00:46:10;;;;;;;49.58;16.05;;;9.60;99.90;;;;;;4994471;28;20092;-69
2021/12/01 00:48:36;;;;;;;42.45;15.43;;;9.70;99.90;;;;;;4975467;28;20058;-71
2021/12/01 00:51:03;;;;;;;40.88;16.60;;;9.80;99.90;;;;;;4992540;28;20512;-70
2021/12/01 00:53:35;;;;;;;44.80;18.02;;;9.90;99.90;;;;;;5010340;28;20046;-70
2021/12/01 00:56:00;;;;;;;40.65;18.33;;;9.90;99.90;;;;;;4990981;28;20072;-72
2021/12/01 00:58:26;;;;;;;43.83;17.23;;;10.00;99.90;;;;;;4976527;28;20479;-69
2021/12/01 01:00:52;;;;;;;35.67;15.13;;;10.10;99.90;;;;;;4975653;28;20056;-70
2021/12/01 01:03:18;;;;;;;36.17;16.85;;;10.10;99.90;;;;;;4981332;28;20054;-72
2021/12/01 01:05:44;;;;;;;36.30;16.02;;;10.20;99.90;;;;;;4976399;28;21625;-70
2021/12/01 01:08:10;;;;;;;35.17;15.88;;;10.20;99.90;;;;;;4981658;28;20100;-71
2021/12/01 01:18:42;;;;;;;36.72;17.73;;;10.20;99.90;;;;;;5005309;28;20050;-70
2021/12/01 01:21:08;;;;;;;35.28;16.05;;;10.30;99.90;;;;;;5006520;28;20038;-71
2021/12/01 01:23:35;;;;;;;32.83;15.85;;;10.30;99.90;;;;;;4977097;28;20161;-73
2021/12/01 01:26:02;;;;;;;39.25;18.65;;;10.40;99.90;;;;;;5008654;28;20065;-71
2021/12/01 01:28:28;;;;;;;31.92;15.85;;;10.40;99.90;;;;;;5008324;28;20054;-71
2021/12/01 01:30:54;;;;;;;31.90;15.07;;;10.40;99.90;;;;;;4996952;28;20040;-70
2021/12/01 01:33:21;;;;;;;28.05;13.60;;;10.40;99.90;;;;;;4997542;28;20085;-70
2021/12/01 01:35:47;;;;;;;29.88;14.60;;;10.40;99.90;;;;;;4978377;28;20524;-70
2021/12/01 01:38:13;;;;;;;32.13;15.57;;;10.40;99.90;;;;;;4992354;28;20483;-70
2021/12/01 01:40:39;;;;;;;28.35;14.10;;;10.50;99.90;;;;;;4978232;28;20049;-70
2021/12/01 01:43:05;;;;;;;28.35;14.77;;;10.40;99.90;;;;;;4988687;28;20114;-70
2021/12/01 01:45:31;;;;;;;30.25;16.38;;;10.50;99.90;;;;;;4985922;28;20053;-70
2021/12/01 01:48:03;;;;;;;27.67;14.77;;;10.50;99.90;;;;;;4993314;28;20061;-71
2021/12/01 01:50:36;;;;;;;15.57;8.55;;;10.50;99.90;;;;;;5006737;28;20046;-70
2021/12/01 01:53:08;;;;;;;21.08;10.63;;;10.60;99.90;;;;;;4975027;28;20103;-70
2021/12/01 01:55:38;;;;;;;28.85;13.45;;;10.60;99.90;;;;;;4993360;28;20052;-70
2021/12/01 01:58:04;;;;;;;24.88;11.45;;;10.60;99.90;;;;;;4992473;28;20046;-70
2021/12/01 02:00:30;;;;;;;23.80;11.73;;;10.60;99.90;;;;;;4990631;28;20503;-72
2021/12/01 02:02:58;;;;;;;22.80;10.02;;;10.70;99.90;;;;;;4977169;28;20037;-70
2021/12/01 02:05:24;;;;;;;22.13;11.43;;;10.70;99.90;;;;;;4992011;28;20451;-69
2021/12/01 02:07:51;;;;;;;13.73;7.07;;;10.70;99.90;;;;;;4975903;28;20106;-69
2021/12/01 02:10:17;;;;;;;13.98;8.68;;;10.70;99.90;;;;;;4975615;28;20463;-70
2021/12/01 02:12:43;;;;;;;18.65;9.52;;;10.70;99.90;;;;;;4988104;28;20099;-70
2021/12/01 02:15:10;;;;;;;17.23;9.30;;;10.60;99.90;;;;;;4993896;28;20096;-70
2021/12/01 02:17:36;;;;;;;11.90;6.65;;;10.60;99.90;;;;;;4991152;28;20053;-70
2021/12/01 02:20:10;;;;;;;9.82;5.80;;;10.60;99.90;;;;;;4977676;28;20060;-70
2021/12/01 02:22:36;;;;;;;10.85;5.50;;;10.70;99.90;;;;;;4988177;28;20046;-70
2021/12/01 02:25:02;;;;;;;10.93;5.38;;;10.70;99.90;;;;;;4992948;28;20053;-70
2021/12/01 02:27:27;;;;;;;13.63;6.22;;;10.60;99.90;;;;;;4992773;28;20049;-72
2021/12/01 02:29:53;;;;;;;12.52;6.32;;;10.60;99.90;;;;;;5010184;28;20058;-70
2021/12/01 02:32:19;;;;;;;15.35;6.93;;;10.60;99.90;;;;;;4989210;28;20046;-70
2021/12/01 02:34:44;;;;;;;12.95;7.18;;;10.50;99.90;;;;;;4975221;28;20064;-70
2021/12/01 02:37:11;;;;;;;10.20;5.80;;;10.50;99.90;;;;;;4955832;28;20930;-73
2021/12/01 02:39:38;;;;;;;12.88;6.00;;;10.40;99.90;;;;;;5007866;28;20056;-70
2021/12/01 02:42:06;;;;;;;15.20;7.20;;;10.40;99.90;;;;;;4992796;28;20082;-70
2021/12/01 02:44:33;;;;;;;18.85;7.40;;;10.40;99.90;;;;;;4978078;28;20388;-70
2021/12/01 02:47:00;;;;;;;14.27;7.10;;;10.40;99.90;;;;;;4991200;28;20057;-70
2021/12/01 02:49:26;;;;;;;15.20;7.20;;;10.40;99.90;;;;;;4975497;28;20056;-71
2021/12/01 02:51:56;;;;;;;11.00;5.55;;;10.40;99.90;;;;;;4973600;28;20049;-69
2021/12/01 02:54:24;;;;;;;11.18;5.68;;;10.40;99.90;;;;;;4974561;28;20497;-69
2021/12/01 02:56:52;;;;;;;16.48;7.32;;;10.40;99.90;;;;;;4997473;28;20041;-70
2021/12/01 02:59:18;;;;;;;12.85;5.85;;;10.40;99.90;;;;;;4989199;28;20502;-70
2021/12/01 03:01:44;;;;;;;10.32;5.05;;;10.40;99.90;;;;;;4971891;28;20403;-70
2021/12/01 03:04:11;;;;;;;7.78;4.70;;;10.40;99.90;;;;;;4970706;28;20042;-70
2021/12/01 03:06:38;;;;;;;6.28;3.72;;;10.40;99.90;;;;;;4974863;28;20058;-69
2021/12/01 03:09:06;;;;;;;6.28;3.65;;;10.40;99.90;;;;;;4967859;28;20487;-70
2021/12/01 03:11:31;;;;;;;6.78;4.10;;;10.50;99.90;;;;;;4990133;28;20497;-70
2021/12/01 03:13:57;;;;;;;8.02;4.28;;;10.50;99.90;;;;;;4992456;28;20491;-72
2021/12/01 03:16:24;;;;;;;8.52;3.67;;;10.60;99.90;;;;;;4993364;28;20046;-69
2021/12/01 03:18:50;;;;;;;8.48;4.63;;;10.60;99.90;;;;;;4966686;28;20054;-69
2021/12/01 03:21:16;;;;;;;10.73;4.85;;;10.60;99.90;;;;;;4973905;28;20062;-73
2021/12/01 03:23:43;;;;;;;8.88;4.13;;;10.70;99.90;;;;;;4987524;28;20057;-71
2021/12/01 03:26:09;;;;;;;7.65;3.60;;;10.60;99.90;;;;;;4988732;28;20066;-70
2021/12/01 03:28:35;;;;;;;3.45;2.35;;;10.60;99.90;;;;;;4977678;28;20053;-70
2021/12/01 03:31:01;;;;;;;8.13;3.42;;;10.70;99.90;;;;;;4989103;28;20045;-70
2021/12/01 03:33:28;;;;;;;7.30;3.35;;;10.70;99.90;;;;;;4991505;28;20132;-73
2021/12/01 03:35:54;;;;;;;7.13;3.72;;;10.90;99.90;;;;;;4989783;28;20045;-70
2021/12/01 03:38:25;;;;;;;7.68;3.97;;;10.70;99.90;;;;;;4987653;28;20038;-69
2021/12/01 03:40:50;;;;;;;10.47;5.37;;;10.80;99.90;;;;;;4985948;28;20045;-72
2021/12/01 03:43:16;;;;;;;7.82;3.72;;;10.70;99.90;;;;;;4975831;28;20391;-70
2021/12/01 03:45:42;;;;;;;8.38;3.10;;;10.70;99.90;;;;;;4992969;28;20046;-69
2021/12/01 03:48:08;;;;;;;4.07;2.03;;;10.70;99.90;;;;;;4992785;28;20411;-71
2021/12/01 03:50:36;;;;;;;3.30;2.45;;;10.70;99.90;;;;;;4978288;28;20053;-70
2021/12/01 03:53:02;;;;;;;3.97;1.73;;;10.70;99.90;;;;;;4979623;28;20077;-71
2021/12/01 03:55:28;;;;;;;3.80;1.75;;;10.70;99.90;;;;;;4997321;28;20132;-73
2021/12/01 03:57:53;;;;;;;9.60;3.97;;;10.70;99.90;;;;;;4993339;28;20048;-71
2021/12/01 04:00:19;;;;;;;7.18;3.40;;;10.60;99.90;;;;;;4977841;28;20050;-70
2021/12/01 04:02:45;;;;;;;3.42;1.33;;;10.60;99.90;;;;;;4975915;28;20050;-70
2021/12/01 04:05:12;;;;;;;3.83;2.22;;;10.70;99.90;;;;;;4995301;28;20056;-70
2021/12/01 04:07:38;;;;;;;4.03;1.88;;;10.60;99.90;;;;;;4996020;28;20049;-71
2021/12/01 04:10:07;;;;;;;5.50;2.40;;;10.60;99.90;;;;;;4973340;28;20056;-70
2021/12/01 04:12:33;;;;;;;6.97;2.75;;;10.70;99.90;;;;;;4992449;28;20105;-73
2021/12/01 04:14:59;;;;;;;5.13;2.65;;;10.90;99.90;;;;;;4987623;28;20136;-70
2021/12/01 04:17:25;;;;;;;9.02;3.22;;;10.60;99.90;;;;;;4977390;28;20569;-70
2021/12/01 04:19:52;;;;;;;6.72;2.90;;;10.60;99.90;;;;;;4992662;28;20046;-71
2021/12/01 04:22:17;;;;;;;5.45;2.00;;;10.60;99.90;;;;;;4993682;28;20058;-70
2021/12/01 04:24:43;;;;;;;8.48;2.38;;;10.60;99.90;;;;;;4989157;28;20050;-70
2021/12/01 04:27:10;;;;;;;9.07;2.35;;;10.50;99.90;;;;;;4995820;28;20400;-70
2021/12/01 04:29:36;;;;;;;6.55;2.13;;;10.60;99.90;;;;;;4994654;28;20528;-71
2021/12/01 04:32:03;;;;;;;7.45;2.58;;;10.60;99.90;;;;;;4997358;28;20060;-70
2021/12/01 04:34:29;;;;;;;3.80;2.30;;;10.50;99.90;;;;;;4978182;28;20042;-70
2021/12/01 04:36:55;;;;;;;5.82;3.05;;;10.50;99.90;;;;;;4985099;28;20047;-70
2021/12/01 04:39:21;;;;;;;6.70;2.83;;;10.50;99.90;;;;;;4977677;28;20042;-72
2021/12/01 04:41:56;;;;;;;3.90;2.30;;;10.50;99.90;;;;;;4979218;28;20046;-71
2021/12/01 04:44:24;;;;;;;6.40;3.17;;;10.50;99.90;;;;;;4991039;28;20436;-70
2021/12/01 04:46:54;;;;;;;5.65;3.10;;;10.50;99.90;;;;;;4994413;28;20052;-70
2021/12/01 04:49:21;;;;;;;7.35;2.40;;;10.50;99.90;;;;;;4991254;28;20057;-70
2021/12/01 04:51:50;;;;;;;10.30;3.20;;;10.50;99.90;;;;;;4975197;28;20045;-70
2021/12/01 04:54:17;;;;;;;8.10;2.47;;;10.40;99.90;;;;;;4991316;28;20046;-70
2021/12/01 04:56:45;;;;;;;2.78;1.90;;;10.40;99.90;;;;;;4981840;28;20045;-71
2021/12/01 04:59:11;;;;;;;9.40;2.55;;;10.50;99.90;;;;;;4991328;28;20108;-70
2021/12/01 05:01:37;;;;;;;3.40;2.38;;;10.40;99.90;;;;;;4977139;28;20499;-70
2021/12/01 05:04:04;;;;;;;1.83;1.30;;;10.50;99.90;;;;;;4993120;28;20045;-71
2021/12/01 05:06:29;;;;;;;4.25;2.10;;;10.50;99.90;;;;;;4973704;28;20057;-70
2021/12/01 05:08:55;;;;;;;3.28;2.08;;;10.40;99.90;;;;;;4999105;28;20505;-70
2021/12/01 05:11:21;;;;;;;3.08;1.30;;;10.40;99.90;;;;;;4996000;28;20104;-71
2021/12/01 05:13:47;;;;;;;4.00;2.15;;;10.40;99.90;;;;;;4990171;28;20136;-70
2021/12/01 05:16:13;;;;;;;3.80;2.17;;;10.40;99.90;;;;;;4960796;28;20650;-72
2021/12/01 05:18:39;;;;;;;3.42;1.88;;;10.40;99.90;;;;;;4995528;28;20046;-70
2021/12/01 05:21:05;;;;;;;5.03;1.85;;;10.50;99.90;;;;;;4989793;28;20561;-70
2021/12/01 05:23:31;;;;;;;2.60;1.90;;;10.40;99.90;;;;;;4991354;28;20108;-70
2021/12/01 05:25:56;;;;;;;3.30;2.13;;;10.40;99.90;;;;;;4976180;28;20060;-70
2021/12/01 05:28:22;;;;;;;3.60;1.88;;;10.40;99.90;;;;;;5011471;28;20054;-70
2021/12/01 05:30:48;;;;;;;3.25;1.92;;;10.40;99.90;;;;;;4976342;28;20461;-69
2021/12/01 05:33:15;;;;;;;3.33;1.70;;;10.30;99.90;;;;;;4976572;28;20494;-70
2021/12/01 05:35:42;;;;;;;4.00;2.38;;;10.30;99.90;;;;;;4974505;28;20053;-69
2021/12/01 05:38:08;;;;;;;4.70;2.17;;;10.30;99.90;;;;;;4975584;28;20038;-71
2021/12/01 05:40:35;;;;;;;3.72;1.73;;;10.30;99.90;;;;;;4977884;28;20133;-70
2021/12/01 05:43:01;;;;;;;3.88;2.15;;;10.20;99.90;;;;;;4977618;28;20069;-70
2021/12/01 05:45:26;;;;;;;3.28;2.08;;;10.20;99.90;;;;;;4991360;28;20133;-70
2021/12/01 05:47:52;;;;;;;3.47;2.10;;;10.20;99.90;;;;;;4993283;28;20049;-71
2021/12/01 05:50:18;;;;;;;3.47;1.92;;;10.20;99.90;;;;;;4976052;28;20096;-70
2021/12/01 05:52:44;;;;;;;2.75;1.60;;;10.10;99.90;;;;;;4991729;28;20140;-71
2021/12/01 05:55:11;;;;;;;2.78;1.65;;;10.20;99.90;;;;;;4994324;28;20128;-70
2021/12/01 05:57:37;;;;;;;2.83;1.70;;;10.20;99.90;;;;;;4967828;28;20491;-71
2021/12/01 06:00:07;;;;;;;2.92;1.60;;;10.20;99.90;;;;;;4979241;28;20054;-70
2021/12/01 06:02:33;;;;;;;2.50;1.80;;;10.10;99.90;;;;;;4993111;28;20529;-71
2021/12/01 06:04:59;;;;;;;3.00;1.92;;;10.10;99.90;;;;;;4996407;28;20042;-70
2021/12/01 06:07:24;;;;;;;3.08;2.00;;;10.10;99.90;;;;;;4975242;28;20045;-72
2021/12/01 06:09:51;;;;;;;3.88;1.70;;;10.00;99.90;;;;;;4994054;28;20054;-70
2021/12/01 06:12:17;;;;;;;2.72;1.90;;;10.00;99.90;;;;;;4960931;28;20846;-70
2021/12/01 06:14:44;;;;;;;4.53;2.50;;;10.10;99.90;;;;;;4978238;28;20046;-72
2021/12/01 06:17:12;;;;;;;3.83;2.33;;;10.00;99.90;;;;;;4975981;28;20053;-70
2021/12/01 06:19:39;;;;;;;5.90;2.35;;;10.00;99.90;;;;;;4993501;28;20052;-70
2021/12/01 06:22:05;;;;;;;5.28;2.35;;;10.00;99.90;;;;;;4974009;28;20132;-69
2021/12/01 06:24:31;;;;;;;2.67;1.95;;;10.00;99.90;;;;;;4989234;28;20124;-70
2021/12/01 06:26:57;;;;;;;2.45;1.88;;;10.00;99.90;;;;;;4974773;28;20073;-70
2021/12/01 06:29:22;;;;;;;1.88;1.40;;;9.90;99.90;;;;;;4976421;28;20037;-70
2021/12/01 06:31:48;;;;;;;4.00;2.30;;;9.90;99.90;;;;;;4964160;28;20497;-70
2021/12/01 06:34:14;;;;;;;2.45;1.98;;;10.00;99.90;;;;;;4991312;28;20056;-72
2021/12/01 06:36:40;;;;;;;3.03;2.33;;;9.90;99.90;;;;;;4990010;28;20053;-70
2021/12/01 06:39:07;;;;;;;2.13;1.50;;;9.90;99.90;;;;;;4976988;28;20175;-71
2021/12/01 06:41:33;;;;;;;2.88;1.77;;;9.90;99.90;;;;;;4999281;28;20104;-69
2021/12/01 06:44:00;;;;;;;2.15;1.45;;;9.80;99.90;;;;;;4974109;28;20518;-70
2021/12/01 06:46:26;;;;;;;1.88;1.20;;;9.80;99.90;;;;;;4979233;28;20049;-70
2021/12/01 06:48:52;;;;;;;1.75;1.40;;;9.80;99.90;;;;;;4990422;28;20487;-70
2021/12/01 06:51:18;;;;;;;1.85;1.30;;;9.80;99.90;;;;;;4991671;28;20427;-70
2021/12/01 06:53:44;;;;;;;3.13;1.70;;;9.80;99.90;;;;;;4973633;28;20054;-71
2021/12/01 06:56:09;;;;;;;2.38;1.20;;;9.80;99.90;;;;;;4990693;28;20042;-70
2021/12/01 06:58:36;;;;;;;3.92;1.33;;;9.70;99.90;;;;;;4959187;28;20498;-71
2021/12/01 07:01:06;;;;;;;1.80;1.30;;;9.70;99.90;;;;;;5001029;28;20061;-70
2021/12/01 07:03:33;;;;;;;2.17;1.60;;;9.70;99.90;;;;;;4991818;28;20448;-71
2021/12/01 07:05:58;;;;;;;1.40;1.25;;;9.70;99.90;;;;;;4981778;28;20138;-71
2021/12/01 07:08:24;;;;;;;3.05;1.75;;;9.70;99.90;;;;;;4997334;28;20069;-70
2021/12/01 07:10:51;;;;;;;2.90;2.00;;;9.70;99.90;;;;;;4998236;28;20132;-71
2021/12/01 07:13:17;;;;;;;2.05;1.50;;;9.60;99.90;;;;;;4995287;28;20176;-70
2021/12/01 07:15:43;;;;;;;1.83;1.55;;;9.60;99.90;;;;;;4993585;28;20054;-70
2021/12/01 07:18:09;;;;;;;2.50;1.65;;;9.60;99.90;;;;;;4992304;28;20129;-71
2021/12/01 07:20:36;;;;;;;1.98;1.40;;;9.60;99.90;;;;;;4974642;28;20108;-71
2021/12/01 07:23:04;;;;;;;2.80;1.42;;;9.60;99.90;;;;;;4980329;28;20061;-71
2021/12/01 07:25:31;;;;;;;1.40;1.10;;;9.50;99.90;;;;;;4978672;28;20053;-71
2021/12/01 07:27:58;;;;;;;2.47;1.77;;;9.60;99.90;;;;;;4977741;28;20045;-70
2021/12/01 07:30:24;;;;;;;4.07;2.08;;;9.60;99.90;;;;;;4995309;28;20132;-71
2021/12/01 07:32:50;;;;;;;2.70;1.80;;;9.60;99.90;;;;;;4979511;28;20053;-71
2021/12/01 07:35:16;;;;;;;1.95;1.42;;;9.60;99.90;;;;;;4992711;28;20046;-70
2021/12/01 07:37:42;;;;;;;1.50;1.10;;;9.50;99.90;;;;;;4973107;28;20057;-70
2021/12/01 07:40:08;;;;;;;3.67;1.98;;;9.60;99.90;;;;;;4980827;28;20108;-70
2021/12/01 07:42:34;;;;;;;1.60;1.30;;;9.50;99.90;;;;;;4997850;28;20049;-70
2021/12/01 07:45:00;;;;;;;2.00;1.42;;;9.60;99.90;;;;;;4998411;28;20452;-71
2021/12/01 07:47:26;;;;;;;2.42;1.77;;;9.60;99.90;;;;;;4959115;28;20054;-70
2021/12/01 07:49:52;;;;;;;2.15;1.30;;;9.60;99.90;;;;;;4994485;28;21182;-70
2021/12/01 07:52:18;;;;;;;1.73;1.27;;;9.60;99.90;;;;;;4982693;28;20124;-70
2021/12/01 07:54:43;;;;;;;3.42;1.45;;;9.60;99.90;;;;;;5002670;28;20046;-70
2021/12/01 07:57:10;;;;;;;1.63;1.25;;;9.60;99.90;;;;;;4961615;28;20056;-71
2021/12/01 07:59:36;;;;;;;2.10;1.52;;;9.60;99.90;;;;;;5012688;28;20056;-70
2021/12/01 08:02:02;;;;;;;2.38;1.63;;;9.60;99.90;;;;;;5011960;28;20055;-69
2021/12/01 08:04:29;;;;;;;2.25;1.65;;;9.60;99.90;;;;;;4985916;28;20088;-70
2021/12/01 08:06:55;;;;;;;3.28;2.13;;;9.60;99.90;;;;;;5013860;28;20041;-70
2021/12/01 08:09:23;;;;;;;3.65;1.98;;;9.70;99.90;;;;;;4987242;28;20192;-71
2021/12/01 08:11:49;;;;;;;2.03;1.55;;;9.60;99.90;;;;;;5004769;28;20054;-70
2021/12/01 08:14:15;;;;;;;2.58;1.77;;;9.70;99.90;;;;;;4996778;28;20042;-70
2021/12/01 08:16:40;;;;;;;2.47;1.88;;;9.70;99.90;;;;;;4980014;28;20050;-70
2021/12/01 08:19:06;;;;;;;1.95;1.50;;;9.60;99.90;;;;;;4997485;28;20096;-70
2021/12/01 08:21:33;;;;;;;2.53;1.83;;;9.70;99.90;;;;;;4996878;28;20089;-70
2021/12/01 08:23:58;;;;;;;2.85;1.65;;;9.70;99.90;;;;;;4979652;28;20049;-71
2021/12/01 08:26:25;;;;;;;3.08;2.13;;;9.70;99.90;;;;;;4996548;28;20042;-70
2021/12/01 08:28:51;;;;;;;3.47;1.80;;;9.70;99.90;;;;;;4996549;28;20050;-71
2021/12/01 08:31:18;;;;;;;3.10;2.47;;;9.70;99.90;;;;;;4996860;28;20390;-69
2021/12/01 08:33:46;;;;;;;2.50;1.67;;;9.70;99.90;;;;;;4977994;28;20434;-70
2021/12/01 08:36:12;;;;;;;5.57;3.00;;;9.70;99.90;;;;;;4980861;28;20057;-71
2021/12/01 08:38:39;;;;;;;4.45;3.00;;;9.70;99.90;;;;;;4996830;28;20056;-70
2021/12/01 08:41:06;;;;;;;3.65;2.38;;;9.70;99.90;;;;;;4948587;28;20089;-70
2021/12/01 08:43:33;;;;;;;5.35;2.60;;;9.70;99.90;;;;;;4995093;28;20042;-70
2021/12/01 08:46:00;;;;;;;2.72;1.88;;;9.70;99.90;;;;;;4996271;28;20495;-72
2021/12/01 08:48:26;;;;;;;2.90;2.10;;;9.70;99.90;;;;;;4996715;28;20033;-70
2021/12/01 08:50:53;;;;;;;3.65;2.42;;;9.80;99.90;;;;;;4996655;28;20049;-70
2021/12/01 08:53:18;;;;;;;3.10;2.22;;;9.80;99.90;;;;;;4978694;28;20773;-70
2021/12/01 08:55:45;;;;;;;5.82;2.75;;;9.70;99.90;;;;;;4977837;28;20050;-70
2021/12/01 08:58:13;;;;;;;8.13;3.80;;;9.70;99.90;;;;;;4979058;28;20042;-71
2021/12/01 09:00:45;;;;;;;6.65;4.53;;;9.70;99.90;;;;;;5001535;28;20067;-71
2021/12/01 09:03:16;;;;;;;5.65;3.33;;;9.70;99.90;;;;;;4975167;28;20472;-71
2021/12/01 09:05:44;;;;;;;4.60;3.13;;;9.70;99.90;;;;;;4979925;28;20252;-72
2021/12/01 09:08:11;;;;;;;4.00;1.92;;;9.70;99.90;;;;;;4995003;28;20056;-71
2021/12/01 09:10:37;;;;;;;4.47;2.42;;;9.70;99.90;;;;;;4980299;28;20053;-70
2021/12/01 09:13:04;;;;;;;3.50;2.20;;;9.80;99.90;;;;;;4994902;28;20041;-70
2021/12/01 09:15:31;;;;;;;2.88;1.52;;;9.70;99.90;;;;;;4998641;28;20050;-70
2021/12/01 09:17:57;;;;;;;3.30;1.63;;;9.70;99.90;;;;;;4978938;28;20046;-70
2021/12/01 09:20:24;;;;;;;3.60;1.30;;;9.60;99.90;;;;;;4981849;28;20042;-71
2021/12/01 09:22:50;;;;;;;6.65;1.90;;;9.60;99.90;;;;;;5010049;28;20056;-71
2021/12/01 09:25:16;;;;;;;10.23;1.80;;;9.60;99.90;;;;;;4994957;28;20104;-70
2021/12/01 09:27:44;;;;;;;10.57;2.00;;;9.60;99.90;;;;;;5015479;28;20060;-70
2021/12/01 09:30:11;;;;;;;6.13;1.63;;;9.60;99.90;;;;;;4981139;28;20109;-71
2021/12/01 09:32:38;;;;;;;2.80;1.35;;;9.60;99.90;;;;;;4984897;28;20056;-70
2021/12/01 09:35:05;;;;;;;4.65;1.50;;;9.50;99.90;;;;;;4998668;28;20038;-70
2021/12/01 09:37:31;;;;;;;6.63;1.63;;;9.50;99.90;;;;;;5011146;28;20053;-70
2021/12/01 09:39:57;;;;;;;6.53;1.60;;;9.50;99.90;;;;;;4979916;28;20042;-72
2021/12/01 09:42:22;;;;;;;9.52;1.80;;;9.50;99.90;;;;;;5015175;28;20498;-71
2021/12/01 09:44:51;;;;;;;4.00;0.90;;;9.50;99.90;;;;;;4993804;28;20064;-71
2021/12/01 09:47:19;;;;;;;4.40;1.02;;;9.50;99.90;;;;;;4986822;28;20081;-71
2021/12/01 09:49:46;;;;;;;5.40;0.98;;;9.50;99.90;;;;;;4991059;28;20050;-71
2021/12/01 09:52:13;;;;;;;4.68;0.98;;;9.50;99.90;;;;;;5004025;28;20057;-72
2021/12/01 09:54:39;;;;;;;3.97;0.88;;;9.50;99.90;;;;;;5010902;28;20097;-71
2021/12/01 09:57:07;;;;;;;3.70;0.85;;;9.40;99.90;;;;;;5004968;28;20045;-72
2021/12/01 09:59:33;;;;;;;6.57;1.17;;;9.30;99.90;;;;;;5004854;28;20056;-71
2021/12/01 10:01:59;;;;;;;8.75;1.20;;;9.40;99.90;;;;;;5007390;28;20060;-71
2021/12/01 10:04:25;;;;;;;6.43;1.42;;;9.40;99.90;;;;;;4998808;28;20164;-72
2021/12/01 10:07:10;;;;;;;6.60;0.93;;;9.60;99.90;;;;;;5005571;28;20042;-71
2021/12/01 10:09:44;;;;;;;4.90;0.88;;;9.30;99.90;;;;;;5010152;28;20198;-71
2021/12/01 10:12:10;;;;;;;3.92;0.82;;;9.40;99.90;;;;;;5001584;28;20435;-72
2021/12/01 10:14:36;;;;;;;6.00;0.77;;;9.40;99.90;;;;;;5004114;28;20056;-71
2021/12/01 10:17:02;;;;;;;7.32;1.30;;;9.40;99.90;;;;;;5008460;28;20046;-71
2021/12/01 10:19:28;;;;;;;6.32;0.88;;;9.50;99.90;;;;;;5004703;28;20220;-73
2021/12/01 10:21:54;;;;;;;8.30;1.42;;;9.50;99.90;;;;;;5010827;28;20487;-72
2021/12/01 10:24:30;;;;;;;5.18;1.10;;;9.50;99.90;;;;;;4989865;28;20045;-72
2021/12/01 10:26:59;;;;;;;9.30;1.15;;;9.40;99.90;;;;;;5010551;28;20057;-71
2021/12/01 10:29:27;;;;;;;5.05;1.08;;;9.40;99.90;;;;;;5001473;28;20118;-71
2021/12/01 10:31:56;;;;;;;5.47;0.85;;;9.50;99.90;;;;;;4994706;28;20076;-72
2021/12/01 10:34:35;;;;;;;10.30;1.05;;;9.50;99.90;;;;;;5004413;28;20403;-70
2021/12/01 10:37:18;;;;;;;7.47;1.00;;;9.50;99.90;;;;;;4996474;28;20052;-72
2021/12/01 10:39:47;;;;;;;6.78;1.00;;;9.50;99.90;;;;;;4979533;28;20046;-71
2021/12/01 10:42:16;;;;;;;9.57;1.13;;;9.50;99.90;;;;;;5002613;28;20184;-71
2021/12/01 10:44:58;;;;;;;9.57;1.95;;;9.40;99.90;;;;;;4980204;28;20053;-71
2021/12/01 10:47:25;;;;;;;6.97;1.23;;;9.50;99.90;;;;;;4993637;28;20400;-71
2021/12/01 10:49:50;;;;;;;14.45;1.40;;;9.40;99.90;;;;;;4983721;28;20053;-71
2021/12/01 10:52:38;;;;;;;12.60;2.05;;;9.40;99.90;;;;;;5013795;28;20506;-72
2021/12/01 10:55:10;;;;;;;9.60;1.60;;;9.40;99.90;;;;;;5004095;28;20047;-72
2021/12/01 10:57:47;;;;;;;9.90;1.55;;;9.40;99.90;;;;;;5002778;28;20056;-72
2021/12/01 11:00:19;;;;;;;7.68;0.93;;;9.40;99.90;;;;;;4998803;28;20033;-72
2021/12/01 11:02:45;;;;;;;7.80;1.20;;;9.40;99.90;;;;;;5006946;28;20038;-73
2021/12/01 11:05:30;;;;;;;4.78;1.13;;;9.50;99.90;;;;;;5002041;28;20395;-72
2021/12/01 11:07:56;;;;;;;6.70;0.90;;;9.50;99.90;;;;;;5002363;28;20052;-71
2021/12/01 11:10:25;;;;;;;6.57;0.90;;;9.50;99.90;;;;;;4973535;28;20476;-71
2021/12/01 11:13:01;;;;;;;9.10;1.23;;;9.40;99.90;;;;;;4982256;28;20042;-72
2021/12/01 11:15:40;;;;;;;4.88;0.95;;;9.40;99.90;;;;;;4982217;28;20049;-71
2021/12/01 11:18:15;;;;;;;9.95;1.13;;;9.40;99.90;;;;;;4981652;28;20042;-71
2021/12/01 11:20:45;;;;;;;7.35;1.08;;;9.40;99.90;;;;;;4985075;28;20049;-72
2021/12/01 11:23:24;;;;;;;6.47;1.25;;;9.40;99.90;;;;;;5012772;28;20057;-70
2021/12/01 11:26:07;;;;;;;8.20;1.33;;;9.40;99.90;;;;;;4995941;28;20057;-71
2021/12/01 11:28:43;;;;;;;10.57;1.63;;;9.40;99.90;;;;;;4980161;28;20050;-71
2021/12/01 11:31:20;;;;;;;6.13;1.20;;;9.40;99.90;;;;;;5003485;28;20053;-70
2021/12/01 11:33:47;;;;;;;5.68;1.10;;;9.40;99.90;;;;;;4993113;28;20055;-72
2021/12/01 11:36:20;;;;;;;9.73;1.30;;;9.40;99.90;;;;;;4968626;28;20049;-71
2021/12/01 11:38:50;;;;;;;6.78;1.08;;;9.40;99.90;;;;;;5013715;28;20103;-71
2021/12/01 11:41:16;;;;;;;9.30;1.25;;;9.40;99.90;;;;;;5007628;28;20132;-72
2021/12/01 11:43:42;;;;;;;8.82;0.98;;;9.40;99.90;;;;;;5013203;28;20133;-72
2021/12/01 11:46:09;;;;;;;9.20;1.52;;;9.40;99.90;;;;;;5009536;28;20092;-72
2021/12/01 11:48:39;;;;;;;9.18;1.70;;;9.40;99.90;;;;;;4994393;28;20057;-71
2021/12/01 11:51:21;;;;;;;10.30;2.10;;;9.50;99.90;;;;;;4979224;28;20140;-72
2021/12/01 11:54:03;;;;;;;11.85;1.65;;;9.60;99.90;;;;;;5012990;28;20430;-71
2021/12/01 11:56:34;;;;;;;13.50;1.90;;;9.60;99.90;;;;;;4978645;28;20068;-71
2021/12/01 11:59:14;;;;;;;11.18;2.28;;;9.60;99.90;;;;;;4998490;28;20045;-71
2021/12/01 12:01:53;;;;;;;12.50;1.90;;;9.60;99.90;;;;;;4993115;28;20045;-71
2021/12/01 12:04:21;;;;;;;17.30;2.25;;;9.60;99.90;;;;;;4976097;28;20126;-72
2021/12/01 12:07:04;;;;;;;10.82;2.00;;;9.60;99.90;;;;;;5001957;28;20092;-72
2021/12/01 12:09:31;;;;;;;9.13;1.63;;;9.50;99.90;;;;;;4997311;28;20097;-72
2021/12/01 12:12:10;;;;;;;12.75;1.95;;;9.50;99.90;;;;;;4996303;28;20074;-71
2021/12/01 12:14:49;;;;;;;14.52;2.33;;;9.50;99.90;;;;;;4993239;28;20515;-71
2021/12/01 12:17:22;;;;;;;13.07;1.95;;;9.40;99.90;;;;;;5002147;28;20046;-71
2021/12/01 12:19:49;;;;;;;9.00;1.52;;;9.30;99.90;;;;;;4980154;28;20045;-71
2021/12/01 12:22:24;;;;;;;18.30;2.83;;;9.30;99.90;;;;;;4999590;28;20064;-71
2021/12/01 12:24:53;;;;;;;15.15;1.83;;;9.30;99.90;;;;;;4996136;28;20046;-71
2021/12/01 12:27:31;;;;;;;9.35;1.73;;;9.10;99.90;;;;;;4966206;28;20046;-71
2021/12/01 12:30:00;;;;;;;9.27;1.55;;;9.10;99.90;;;;;;4980403;28;20050;-70
2021/12/01 12:32:29;;;;;;;12.98;1.88;;;9.10;99.90;;;;;;4996335;28;20061;-71
2021/12/01 12:35:02;;;;;;;12.65;2.30;;;9.00;99.90;;;;;;4999245;28;20048;-72
2021/12/01 12:37:30;;;;;;;13.40;1.83;;;9.00;99.90;;;;;;5006165;28;20053;-73
2021/12/01 12:39:57;;;;;;;11.05;1.55;;;9.00;99.90;;;;;;5001543;28;20151;-71
2021/12/01 12:42:23;;;;;;;12.35;2.22;;;9.10;99.90;;;;;;4981955;28;20046;-72
2021/12/01 12:44:52;;;;;;;10.15;1.88;;;9.10;99.90;;;;;;4983527;28;20076;-71
2021/12/01 12:47:19;;;;;;;11.95;1.70;;;9.10;99.90;;;;;;4980563;28;20049;-71
2021/12/01 12:50:10;;;;;;;9.57;1.95;;;9.40;99.90;;;;;;5015989;28;20490;-71
2021/12/01 12:52:38;;;;;;;12.40;1.55;;;9.30;99.90;;;;;;4998024;28;20084;-71
2021/12/01 12:55:21;;;;;;;14.18;1.70;;;9.50;99.90;;;;;;4995332;28;20126;-72
2021/12/01 12:58:01;;;;;;;9.48;1.42;;;9.50;99.90;;;;;;4977551;28;20495;-71
2021/12/01 13:00:53;;;;;;;7.68;1.67;;;9.50;99.90;;;;;;4996127;28;20148;-72